createdAt,value
2023-03-26T00:00:54.027Z,98886.59
2023-03-26T00:01:58.307Z,98894.72
2023-03-26T00:03:00.531Z,98884.81
2023-03-26T00:04:04.704Z,98894.31
2023-03-26T00:05:09.099Z,98891.53
2023-03-26T00:06:13.504Z,98890.63
2023-03-26T00:07:15.934Z,98896.75
2023-03-26T00:08:18.219Z,98897.84
2023-03-26T00:09:20.478Z,98897.09
2023-03-26T00:10:22.692Z,98894.44
2023-03-26T00:11:27.543Z,98894.44
2023-03-26T00:12:29.897Z,98890.91
2023-03-26T00:13:33.192Z,98899.56
2023-03-26T00:14:35.543Z,98893.00
2023-03-26T00:15:38.339Z,98900.81
2023-03-26T00:16:43.641Z,98898.47
2023-03-26T00:17:49.129Z,98899.44
2023-03-26T00:18:51.615Z,98890.81
2023-03-26T00:19:53.940Z,98893.31
2023-03-26T00:20:57.999Z,98894.78
2023-03-26T00:22:00.505Z,98899.19
2023-03-26T00:23:03.520Z,98882.50
2023-03-26T00:24:15.004Z,98899.91
2023-03-26T00:25:17.633Z,98897.41
2023-03-26T00:26:19.863Z,98893.09
2023-03-26T00:27:22.141Z,98898.16
2023-03-26T00:28:24.679Z,98888.44
2023-03-26T00:29:28.003Z,98893.84
2023-03-26T00:30:30.314Z,98893.53
2023-03-26T00:31:33.060Z,98891.50
2023-03-26T00:32:35.310Z,98890.56
2023-03-26T00:33:40.519Z,98888.78
2023-03-26T00:34:46.077Z,98897.88
2023-03-26T00:35:52.710Z,98900.41
2023-03-26T00:36:55.219Z,98889.09
2023-03-26T00:37:58.344Z,98885.50
2023-03-26T00:39:01.285Z,98884.72
2023-03-26T00:40:08.018Z,98878.31
2023-03-26T00:41:22.529Z,98880.56
2023-03-26T00:42:26.145Z,98878.19
2023-03-26T00:43:32.826Z,98874.56
2023-03-26T00:44:35.350Z,98869.25
2023-03-26T00:45:37.624Z,98869.84
2023-03-26T00:46:39.986Z,98864.69
2023-03-26T00:47:43.555Z,98862.19
2023-03-26T00:48:46.678Z,98865.72
2023-03-26T00:49:48.909Z,98868.47
2023-03-26T00:50:51.570Z,98868.88
2023-03-26T00:51:54.042Z,98861.38
2023-03-26T00:52:56.317Z,98851.78
2023-03-26T00:53:58.747Z,98856.94
2023-03-26T00:55:01.064Z,98858.69
2023-03-26T00:56:06.206Z,98852.16
2023-03-26T00:57:10.347Z,98847.63
2023-03-26T00:58:13.861Z,98851.72
2023-03-26T00:59:16.966Z,98847.41
2023-03-26T01:00:29.623Z,98852.56
2023-03-26T01:01:32.324Z,98842.81
2023-03-26T01:02:35.373Z,98847.22
2023-03-26T01:03:38.786Z,98845.41
2023-03-26T01:04:56.798Z,98840.28
2023-03-26T01:06:02.590Z,98839.63
2023-03-26T01:07:11.618Z,98843.22
2023-03-26T01:08:20.441Z,98836.28
2023-03-26T01:09:30.706Z,98839.34
2023-03-26T01:10:38.595Z,98831.50
2023-03-26T01:11:40.862Z,98826.63
2023-03-26T01:12:44.034Z,98830.75
2023-03-26T01:14:23.963Z,98837.97
2023-03-26T01:15:29.943Z,98829.19
2023-03-26T01:16:37.267Z,98830.19
2023-03-26T01:17:39.898Z,98831.03
2023-03-26T01:18:42.150Z,98822.22
2023-03-26T01:20:13.250Z,98822.72
2023-03-26T01:21:22.527Z,98824.06
2023-03-26T01:22:27.277Z,98821.41
2023-03-26T01:23:57.697Z,98811.69
2023-03-26T01:25:00.205Z,98807.59
2023-03-26T01:26:28.913Z,98802.66
2023-03-26T01:27:40.846Z,98813.88
2023-03-26T01:28:43.330Z,98808.91
2023-03-26T01:29:54.298Z,98810.38
2023-03-26T01:31:09.916Z,98802.22
2023-03-26T01:32:34.280Z,98796.78
2023-03-26T01:33:52.259Z,98791.50
2023-03-26T01:35:06.315Z,98793.72
2023-03-26T01:36:17.693Z,98793.78
2023-03-26T01:37:46.825Z,98795.81
2023-03-26T01:39:00.481Z,98792.38
2023-03-26T01:40:38.534Z,98784.91
2023-03-26T01:42:08.281Z,98783.22
2023-03-26T01:43:23.245Z,98778.22
2023-03-26T01:44:32.945Z,98778.38
2023-03-26T01:45:40.297Z,98771.44
2023-03-26T01:46:43.623Z,98768.13
2023-03-26T01:47:46.856Z,98773.97
2023-03-26T01:48:49.317Z,98766.84
2023-03-26T01:49:51.671Z,98769.59
2023-03-26T01:50:56.413Z,98765.25
2023-03-26T01:51:58.924Z,98763.41
2023-03-26T01:53:01.413Z,98751.38
2023-03-26T01:54:06.869Z,98763.41
2023-03-26T01:55:14.323Z,98756.41
2023-03-26T01:56:35.578Z,98745.19
2023-03-26T01:57:54.518Z,98759.00
2023-03-26T01:59:03.735Z,98753.19
2023-03-26T02:02:21.960Z,98748.16
2023-03-26T02:03:31.414Z,98748.63
2023-03-26T02:04:45.255Z,98739.22
2023-03-26T02:05:56.536Z,98746.63
2023-03-26T02:07:12.424Z,98740.97
2023-03-26T02:08:22.668Z,98737.91
2023-03-26T02:09:30.803Z,98728.09
2023-03-26T02:10:39.662Z,98723.69
2023-03-26T02:11:44.821Z,98721.81
2023-03-26T02:12:49.959Z,98713.94
2023-03-26T02:13:54.160Z,98712.03
2023-03-26T02:15:02.095Z,98717.97
2023-03-26T02:16:12.951Z,98704.97
2023-03-26T02:17:19.254Z,98718.38
2023-03-26T02:18:24.042Z,98708.16
2023-03-26T02:19:36.099Z,98702.81
2023-03-26T02:20:40.526Z,98705.38
2023-03-26T02:21:48.236Z,98700.94
2023-03-26T02:22:50.994Z,98704.25
2023-03-26T02:24:02.789Z,98698.84
2023-03-26T02:25:12.012Z,98699.53
2023-03-26T02:26:18.628Z,98689.97
2023-03-26T02:27:35.815Z,98694.22
2023-03-26T02:28:38.653Z,98696.66
2023-03-26T02:29:42.472Z,98684.38
2023-03-26T02:30:47.530Z,98687.69
2023-03-26T02:31:52.201Z,98686.94
2023-03-26T02:32:54.631Z,98678.31
2023-03-26T02:33:58.806Z,98680.94
2023-03-26T02:35:07.266Z,98673.78
2023-03-26T02:36:14.879Z,98677.13
2023-03-26T02:37:19.187Z,98675.53
2023-03-26T02:38:28.104Z,98672.91
2023-03-26T02:39:31.102Z,98673.88
2023-03-26T02:40:39.252Z,98673.09
2023-03-26T02:41:41.602Z,98669.53
2023-03-26T02:42:47.250Z,98663.63
2023-03-26T02:43:51.607Z,98670.88
2023-03-26T02:44:58.702Z,98661.22
2023-03-26T02:46:21.813Z,98665.50
2023-03-26T02:48:01.154Z,98674.50
2023-03-26T02:49:33.806Z,98657.78
2023-03-26T02:50:36.866Z,98664.59
2023-03-26T02:52:18.381Z,98662.19
2023-03-26T02:53:24.024Z,98666.53
2023-03-26T02:54:36.108Z,98675.19
2023-03-26T02:55:51.574Z,98662.78
2023-03-26T02:56:56.910Z,98655.31
2023-03-26T02:58:25.837Z,98649.59
2023-03-26T02:59:32.515Z,98660.56
2023-03-26T03:00:56.570Z,98660.50
2023-03-26T03:02:07.272Z,98655.91
2023-03-26T03:03:10.590Z,98659.47
2023-03-26T03:04:52.174Z,98648.22
2023-03-26T03:05:55.723Z,98650.91
2023-03-26T03:07:06.965Z,98647.44
2023-03-26T03:08:10.575Z,98649.91
2023-03-26T03:09:24.974Z,98646.16
2023-03-26T03:11:01.410Z,98646.94
2023-03-26T03:12:21.368Z,98655.56
2023-03-26T03:13:23.964Z,98654.94
2023-03-26T03:14:27.232Z,98652.25
2023-03-26T03:15:29.829Z,98644.16
2023-03-26T03:16:35.796Z,98652.00
2023-03-26T03:17:44.191Z,98636.91
2023-03-26T03:18:48.838Z,98640.09
2023-03-26T03:19:52.772Z,98642.84
2023-03-26T03:20:55.984Z,98638.41
2023-03-26T03:21:58.602Z,98632.47
2023-03-26T03:23:01.650Z,98636.03
2023-03-26T03:24:05.207Z,98628.28
2023-03-26T03:25:14.357Z,98623.31
2023-03-26T03:26:23.697Z,98626.47
2023-03-26T03:27:29.078Z,98619.72
2023-03-26T03:28:42.947Z,98621.31
2023-03-26T03:29:45.507Z,98613.53
2023-03-26T03:31:09.217Z,98618.97
2023-03-26T03:32:12.465Z,98615.84
2023-03-26T03:33:21.680Z,98609.78
2023-03-26T03:34:25.426Z,98596.81
2023-03-26T03:35:29.503Z,98607.25
2023-03-26T03:36:38.554Z,98600.81
2023-03-26T03:37:59.037Z,98590.50
2023-03-26T03:39:02.965Z,98590.06
2023-03-26T03:40:08.506Z,98593.41
2023-03-26T03:41:11.316Z,98581.97
2023-03-26T03:42:17.390Z,98588.00
2023-03-26T03:43:20.937Z,98587.56
2023-03-26T03:44:36.042Z,98587.88
2023-03-26T03:45:45.225Z,98592.44
2023-03-26T03:47:23.177Z,98592.13
2023-03-26T03:48:31.450Z,98591.38
2023-03-26T03:49:36.190Z,98577.53
2023-03-26T03:50:40.577Z,98584.28
2023-03-26T03:51:58.943Z,98580.94
2023-03-26T03:53:07.429Z,98580.81
2023-03-26T03:54:10.464Z,98581.63
2023-03-26T03:55:23.935Z,98589.91
2023-03-26T03:56:29.140Z,98577.50
2023-03-26T03:57:52.461Z,98579.13
2023-03-26T03:58:58.327Z,98581.78
2023-03-26T04:00:11.685Z,98568.28
2023-03-26T04:01:25.490Z,98568.28
2023-03-26T04:02:36.028Z,98571.97
2023-03-26T04:03:41.238Z,98575.88
2023-03-26T04:04:50.064Z,98564.69
2023-03-26T04:05:55.611Z,98556.31
2023-03-26T04:07:03.689Z,98556.25
2023-03-26T04:08:35.543Z,98549.88
2023-03-26T04:09:40.274Z,98548.47
2023-03-26T04:10:49.920Z,98539.97
2023-03-26T04:12:12.140Z,98544.66
2023-03-26T04:13:17.513Z,98535.38
2023-03-26T04:14:34.807Z,98533.78
2023-03-26T04:15:41.705Z,98531.13
2023-03-26T04:16:44.017Z,98538.09
2023-03-26T04:17:46.522Z,98531.19
2023-03-26T04:18:51.440Z,98526.03
2023-03-26T04:19:54.931Z,98527.53
2023-03-26T04:21:03.186Z,98521.06
2023-03-26T04:22:06.524Z,98521.97
2023-03-26T04:23:18.930Z,98510.53
2023-03-26T04:24:26.194Z,98509.16
2023-03-26T04:25:55.162Z,98511.41
2023-03-26T04:27:12.911Z,98516.41
2023-03-26T04:28:31.840Z,98513.13
2023-03-26T04:29:50.216Z,98504.00
2023-03-26T04:31:00.713Z,98503.41
2023-03-26T04:32:34.014Z,98499.75
2023-03-26T04:33:39.141Z,98504.13
2023-03-26T04:34:45.921Z,98502.03
2023-03-26T04:35:48.741Z,98491.66
2023-03-26T04:36:54.823Z,98489.78
2023-03-26T04:38:06.472Z,98482.47
2023-03-26T04:39:13.233Z,98471.97
2023-03-26T04:40:34.954Z,98481.97
2023-03-26T04:41:46.071Z,98468.97
2023-03-26T04:42:54.522Z,98456.69
2023-03-26T04:44:09.106Z,98456.91
2023-03-26T04:45:12.407Z,98452.59
2023-03-26T04:46:23.545Z,98455.84
2023-03-26T04:47:39.034Z,98459.81
2023-03-26T04:48:42.056Z,98465.38
2023-03-26T04:49:47.602Z,98460.66
2023-03-26T04:50:51.374Z,98460.41
2023-03-26T04:51:55.785Z,98469.09
2023-03-26T04:53:21.451Z,98470.06
2023-03-26T04:54:44.615Z,98468.16
2023-03-26T04:56:05.759Z,98470.19
2023-03-26T04:57:35.345Z,98471.22
2023-03-26T04:58:42.928Z,98467.22
2023-03-26T04:59:45.504Z,98472.28
2023-03-26T05:00:49.634Z,98467.63
2023-03-26T05:01:53.789Z,98460.31
2023-03-26T05:03:01.531Z,98463.47
2023-03-26T05:04:04.115Z,98461.19
2023-03-26T05:05:06.692Z,98456.53
2023-03-26T05:06:11.605Z,98457.81
2023-03-26T05:07:19.839Z,98452.94
2023-03-26T05:08:26.840Z,98459.75
2023-03-26T05:09:29.545Z,98461.38
2023-03-26T05:10:47.286Z,98458.44
2023-03-26T05:11:58.353Z,98459.28
2023-03-26T05:13:00.858Z,98453.22
2023-03-26T05:14:14.743Z,98454.28
2023-03-26T05:15:19.033Z,98448.84
2023-03-26T05:16:34.728Z,98448.03
2023-03-26T05:17:42.965Z,98442.28
2023-03-26T05:18:56.104Z,98436.03
2023-03-26T05:19:59.750Z,98443.72
2023-03-26T05:21:03.077Z,98434.91
2023-03-26T05:22:06.472Z,98432.28
2023-03-26T05:23:13.387Z,98430.81
2023-03-26T05:24:19.653Z,98435.16
2023-03-26T05:25:22.946Z,98426.63
2023-03-26T05:26:26.039Z,98418.72
2023-03-26T05:27:28.347Z,98414.41
2023-03-26T05:28:30.561Z,98418.78
2023-03-26T05:29:37.620Z,98412.59
2023-03-26T05:30:40.322Z,98412.41
2023-03-26T05:31:42.981Z,98400.41
2023-03-26T05:32:48.766Z,98401.28
2023-03-26T05:33:54.856Z,98402.22
2023-03-26T05:34:57.572Z,98404.47
2023-03-26T05:36:07.159Z,98404.34
2023-03-26T05:37:09.425Z,98389.53
2023-03-26T05:38:27.471Z,98396.81
2023-03-26T05:39:29.964Z,98395.03
2023-03-26T05:40:32.210Z,98391.22
2023-03-26T05:41:36.968Z,98397.63
2023-03-26T05:42:44.640Z,98389.28
2023-03-26T05:44:09.533Z,98371.47
2023-03-26T05:45:13.980Z,98360.56
2023-03-26T05:46:16.466Z,98366.84
2023-03-26T05:47:19.213Z,98365.44
2023-03-26T05:48:22.643Z,98360.66
2023-03-26T05:49:25.062Z,98358.72
2023-03-26T05:50:29.331Z,98360.91
2023-03-26T05:51:35.219Z,98354.72
2023-03-26T05:52:57.805Z,98352.59
2023-03-26T05:54:15.228Z,98350.78
2023-03-26T05:55:37.508Z,98343.72
2023-03-26T05:56:58.970Z,98341.75
2023-03-26T05:58:19.850Z,98334.63
2023-03-26T05:59:55.783Z,98331.22
2023-03-26T06:01:17.078Z,98328.16
2023-03-26T06:02:48.628Z,98332.50
2023-03-26T06:04:02.987Z,98325.81
2023-03-26T06:05:12.375Z,98327.72
2023-03-26T06:06:31.123Z,98316.63
2023-03-26T06:07:35.151Z,98317.41
2023-03-26T06:09:01.727Z,98317.22
2023-03-26T06:10:06.003Z,98306.81
2023-03-26T06:11:08.573Z,98309.19
2023-03-26T06:12:14.748Z,98310.91
2023-03-26T06:13:17.631Z,98310.19
2023-03-26T06:14:21.734Z,98308.88
2023-03-26T06:15:46.763Z,98302.84
2023-03-26T06:16:59.932Z,98300.66
2023-03-26T06:18:02.522Z,98302.59
2023-03-26T06:19:43.304Z,98288.97
2023-03-26T06:20:53.557Z,98297.69
2023-03-26T06:22:10.819Z,98297.22
2023-03-26T06:23:36.310Z,98298.63
2023-03-26T06:24:38.481Z,98299.41
2023-03-26T06:25:57.456Z,98296.84
2023-03-26T06:27:18.585Z,98305.53
2023-03-26T06:28:20.986Z,98305.94
2023-03-26T06:29:56.205Z,98296.06
2023-03-26T06:31:12.800Z,98298.16
2023-03-26T06:32:26.236Z,98284.66
2023-03-26T06:33:33.283Z,98292.56
2023-03-26T06:34:35.882Z,98293.41
2023-03-26T06:35:38.141Z,98289.72
2023-03-26T06:36:41.030Z,98276.34
2023-03-26T06:37:43.683Z,98277.56
2023-03-26T06:38:45.944Z,98266.41
2023-03-26T06:39:48.500Z,98276.81
2023-03-26T06:40:53.666Z,98278.34
2023-03-26T06:42:02.537Z,98283.84
2023-03-26T06:43:14.887Z,98273.13
2023-03-26T06:44:52.388Z,98272.03
2023-03-26T06:46:10.356Z,98277.47
2023-03-26T06:47:31.153Z,98272.94
2023-03-26T06:48:54.338Z,98263.91
2023-03-26T06:50:19.148Z,98263.06
2023-03-26T06:51:47.858Z,98259.69
2023-03-26T06:53:03.779Z,98257.66
2023-03-26T06:54:27.579Z,98270.56
2023-03-26T06:55:39.560Z,98260.25
2023-03-26T06:56:53.661Z,98271.91
2023-03-26T06:58:14.692Z,98280.16
2023-03-26T06:59:45.849Z,98281.84
2023-03-26T07:01:23.719Z,98276.38
2023-03-26T07:02:45.445Z,98283.06
2023-03-26T07:04:06.222Z,98269.94
2023-03-26T07:05:27.698Z,98267.56
2023-03-26T07:06:49.172Z,98263.22
2023-03-26T07:09:48.388Z,98260.22
2023-03-26T07:11:09.452Z,98265.78
2023-03-26T07:12:50.955Z,98266.13
2023-03-26T07:14:33.293Z,98252.78
2023-03-26T07:15:59.104Z,98252.78
2023-03-26T07:17:12.113Z,98261.69
2023-03-26T07:18:30.986Z,98245.34
2023-03-26T07:19:33.913Z,98257.81
2023-03-26T07:20:39.410Z,98252.13
2023-03-26T07:21:42.216Z,98242.81
2023-03-26T07:22:59.171Z,98244.28
2023-03-26T07:24:20.373Z,98246.72
2023-03-26T07:25:35.628Z,98242.91
2023-03-26T07:27:03.499Z,98236.97
2023-03-26T07:28:25.691Z,98234.69
2023-03-26T07:29:57.749Z,98238.63
2023-03-26T07:31:35.924Z,98251.84
2023-03-26T07:33:25.924Z,98236.84
2023-03-26T07:35:10.601Z,98235.47
2023-03-26T07:36:56.380Z,98235.56
2023-03-26T07:38:17.222Z,98237.50
2023-03-26T07:39:57.512Z,98235.34
2023-03-26T07:41:30.764Z,98234.94
2023-03-26T07:43:11.382Z,98230.50
2023-03-26T07:44:44.192Z,98228.19
2023-03-26T07:46:11.383Z,98228.06
2023-03-26T07:47:34.362Z,98209.69
2023-03-26T07:49:00.048Z,98209.84
2023-03-26T07:50:34.533Z,98215.34
2023-03-26T07:51:55.498Z,98210.19
2023-03-26T07:53:21.204Z,98209.34
2023-03-26T07:54:34.696Z,98192.97
2023-03-26T07:56:15.960Z,98200.09
2023-03-26T07:58:17.907Z,98199.09
2023-03-26T08:00:08.815Z,98186.41
2023-03-26T08:02:01.737Z,98182.31
2023-03-26T08:03:53.241Z,98189.09
2023-03-26T08:05:37.248Z,98184.69
2023-03-26T08:07:03.401Z,98184.88
2023-03-26T08:08:53.157Z,98186.41
2023-03-26T08:10:18.550Z,98179.09
2023-03-26T08:11:40.875Z,98180.25
2023-03-26T08:12:59.764Z,98176.53
2023-03-26T08:14:40.921Z,98169.56
2023-03-26T08:16:08.116Z,98180.00
2023-03-26T08:17:36.164Z,98180.19
2023-03-26T08:18:46.345Z,98185.03
2023-03-26T08:20:28.265Z,98175.91
2023-03-26T08:21:35.760Z,98180.56
2023-03-26T08:22:41.491Z,98177.25
2023-03-26T08:24:27.305Z,98174.38
2023-03-26T08:25:40.565Z,98171.47
2023-03-26T08:26:51.658Z,98176.56
2023-03-26T08:28:04.159Z,98163.09
2023-03-26T08:29:29.126Z,98180.16
2023-03-26T08:30:32.651Z,98184.41
2023-03-26T08:31:39.000Z,98185.53
2023-03-26T08:32:42.152Z,98198.25
2023-03-26T08:33:45.044Z,98185.13
2023-03-26T08:34:47.410Z,98179.81
2023-03-26T08:35:53.877Z,98183.72
2023-03-26T08:36:57.381Z,98183.66
2023-03-26T08:37:59.664Z,98182.88
2023-03-26T08:39:02.010Z,98179.81
2023-03-26T08:40:04.764Z,98171.16
2023-03-26T08:41:28.763Z,98178.09
2023-03-26T08:43:16.431Z,98181.69
2023-03-26T08:44:47.805Z,98179.16
2023-03-26T08:46:11.117Z,98172.88
2023-03-26T08:47:25.829Z,98177.94
2023-03-26T08:48:49.693Z,98171.59
2023-03-26T08:50:21.597Z,98177.47
2023-03-26T08:51:51.824Z,98170.59
2023-03-26T08:53:44.543Z,98165.38
2023-03-26T08:55:11.805Z,98158.50
2023-03-26T08:56:26.523Z,98156.63
2023-03-26T08:58:06.032Z,98156.81
2023-03-26T08:59:22.975Z,98154.91
2023-03-26T09:00:46.219Z,98158.31
2023-03-26T09:02:31.664Z,98156.63
2023-03-26T09:03:55.731Z,98148.63
2023-03-26T09:05:39.634Z,98153.09
2023-03-26T09:07:18.586Z,98149.56
2023-03-26T09:08:54.314Z,98148.31
2023-03-26T09:10:12.228Z,98139.69
2023-03-26T09:11:26.216Z,98136.41
2023-03-26T09:12:47.085Z,98128.09
2023-03-26T09:14:12.226Z,98132.47
2023-03-26T09:15:50.190Z,98132.47
2023-03-26T09:17:18.489Z,98126.94
2023-03-26T09:18:52.398Z,98130.22
2023-03-26T09:20:19.123Z,98130.66
2023-03-26T09:21:36.713Z,98138.84
2023-03-26T09:23:13.355Z,98124.81
2023-03-26T09:24:43.119Z,98129.34
2023-03-26T09:26:22.828Z,98126.22
2023-03-26T09:27:45.187Z,98123.66
2023-03-26T09:29:07.873Z,98121.00
2023-03-26T09:30:28.841Z,98123.19
2023-03-26T09:32:00.392Z,98123.00
2023-03-26T09:33:22.391Z,98127.69
2023-03-26T09:34:34.615Z,98126.50
2023-03-26T09:36:06.738Z,98132.81
2023-03-26T09:37:25.591Z,98139.09
2023-03-26T09:38:44.222Z,98136.47
2023-03-26T09:40:16.397Z,98134.44
2023-03-26T09:41:35.326Z,98126.50
2023-03-26T09:42:44.778Z,98126.56
2023-03-26T09:44:00.698Z,98126.91
2023-03-26T09:45:27.060Z,98123.41
2023-03-26T09:46:47.396Z,98114.91
2023-03-26T09:48:19.622Z,98121.97
2023-03-26T09:49:51.492Z,98116.44
2023-03-26T09:51:11.785Z,98116.31
2023-03-26T09:52:28.900Z,98110.88
2023-03-26T09:54:08.295Z,98103.06
2023-03-26T09:55:33.420Z,98105.78
2023-03-26T09:56:41.409Z,98100.81
2023-03-26T09:58:01.104Z,98087.91
2023-03-26T09:59:48.719Z,98088.44
2023-03-26T10:01:00.941Z,98087.13
2023-03-26T10:02:45.546Z,98083.59
2023-03-26T10:04:13.087Z,98085.34
2023-03-26T10:05:42.374Z,98080.53
2023-03-26T10:07:06.793Z,98098.72
2023-03-26T10:08:32.068Z,98097.34
2023-03-26T10:09:42.750Z,98098.91
2023-03-26T10:11:08.299Z,98086.78
2023-03-26T10:12:42.377Z,98082.81
2023-03-26T10:14:07.533Z,98094.97
2023-03-26T10:15:26.591Z,98096.50
2023-03-26T10:16:51.346Z,98113.81
2023-03-26T10:18:31.735Z,98110.88
2023-03-26T10:19:57.930Z,98102.84
2023-03-26T10:21:34.551Z,98104.44
2023-03-26T10:22:46.940Z,98102.53
2023-03-26T10:23:52.882Z,98095.72
2023-03-26T10:25:04.716Z,98103.03
2023-03-26T10:26:13.677Z,98092.19
2023-03-26T10:27:18.453Z,98090.22
2023-03-26T10:28:45.500Z,98096.22
2023-03-26T10:30:01.303Z,98081.63
2023-03-26T10:31:43.846Z,98084.31
2023-03-26T10:32:57.726Z,98095.94
2023-03-26T10:34:33.208Z,98085.19
2023-03-26T10:36:05.437Z,98081.75
2023-03-26T10:37:19.167Z,98094.03
2023-03-26T10:38:24.253Z,98095.75
2023-03-26T10:39:37.252Z,98094.41
2023-03-26T10:41:06.029Z,98087.25
2023-03-26T10:42:42.429Z,98096.31
2023-03-26T10:43:57.851Z,98090.59
2023-03-26T10:45:11.041Z,98091.63
2023-03-26T10:46:32.127Z,98075.16
2023-03-26T10:48:12.778Z,98081.38
2023-03-26T10:49:37.634Z,98083.44
2023-03-26T10:50:54.145Z,98084.38
2023-03-26T10:52:04.977Z,98081.47
2023-03-26T10:53:38.709Z,98090.13
2023-03-26T10:55:10.583Z,98072.13
2023-03-26T10:56:33.811Z,98080.44
2023-03-26T10:58:04.454Z,98080.84
2023-03-26T10:59:11.939Z,98076.22
2023-03-26T11:00:25.118Z,98063.47
2023-03-26T11:01:35.951Z,98067.47
2023-03-26T11:02:47.044Z,98071.28
2023-03-26T11:04:22.350Z,98065.97
2023-03-26T11:05:44.572Z,98062.78
2023-03-26T11:07:17.614Z,98066.03
2023-03-26T11:08:54.020Z,98077.44
2023-03-26T11:10:04.469Z,98064.63
2023-03-26T11:11:23.254Z,98070.91
2023-03-26T11:13:00.718Z,98072.09
2023-03-26T11:14:35.280Z,98065.50
2023-03-26T11:15:42.907Z,98061.06
2023-03-26T11:17:07.112Z,98063.25
2023-03-26T11:18:34.824Z,98061.59
2023-03-26T11:20:03.704Z,98054.31
2023-03-26T11:21:20.617Z,98055.41
2023-03-26T11:22:48.444Z,98058.06
2023-03-26T11:24:11.767Z,98059.81
2023-03-26T11:25:29.133Z,98063.78
2023-03-26T11:26:49.955Z,98062.22
2023-03-26T11:28:09.246Z,98076.78
2023-03-26T11:29:31.378Z,98057.53
2023-03-26T11:31:04.480Z,98070.22
2023-03-26T11:32:22.403Z,98076.69
2023-03-26T11:33:50.744Z,98066.69
2023-03-26T11:35:15.490Z,98066.75
2023-03-26T11:36:24.316Z,98062.09
2023-03-26T11:37:35.035Z,98070.94
2023-03-26T11:38:54.001Z,98061.38
2023-03-26T11:40:14.182Z,98066.28
2023-03-26T11:41:25.317Z,98064.47
2023-03-26T11:42:32.248Z,98068.09
2023-03-26T11:43:36.920Z,98063.38
2023-03-26T11:44:44.269Z,98074.63
2023-03-26T11:45:48.797Z,98064.56
2023-03-26T11:46:58.850Z,98072.88
2023-03-26T11:48:22.296Z,98060.88
2023-03-26T11:49:27.396Z,98068.56
2023-03-26T11:50:34.983Z,98062.25
2023-03-26T11:51:45.663Z,98050.69
2023-03-26T11:52:48.786Z,98060.88
2023-03-26T11:53:51.137Z,98053.94
2023-03-26T11:54:56.106Z,98066.16
2023-03-26T11:56:18.877Z,98067.75
2023-03-26T11:57:28.975Z,98071.53
2023-03-26T11:58:54.234Z,98083.69
2023-03-26T12:00:23.965Z,98057.63
2023-03-26T12:01:32.076Z,98057.78
2023-03-26T12:02:40.613Z,98077.16
2023-03-26T12:03:43.924Z,98070.44
2023-03-26T12:04:51.718Z,98066.41
2023-03-26T12:05:59.240Z,98070.66
2023-03-26T12:07:18.060Z,98071.25
2023-03-26T12:08:33.322Z,98085.09
2023-03-26T12:09:36.558Z,98060.09
2023-03-26T12:10:42.804Z,98071.13
2023-03-26T12:11:49.339Z,98073.28
2023-03-26T12:12:55.879Z,98073.91
2023-03-26T12:14:00.921Z,98068.81
2023-03-26T12:15:03.642Z,98075.66
2023-03-26T12:16:11.405Z,98064.47
2023-03-26T12:17:31.202Z,98077.00
2023-03-26T12:18:34.505Z,98064.19
2023-03-26T12:19:43.086Z,98067.91
2023-03-26T12:20:46.391Z,98069.78
2023-03-26T12:21:51.061Z,98077.22
2023-03-26T12:23:00.419Z,98075.81
2023-03-26T12:24:06.071Z,98062.56
2023-03-26T12:25:17.782Z,98054.91
2023-03-26T12:26:30.257Z,98070.69
2023-03-26T12:27:33.106Z,98070.34
2023-03-26T12:28:35.321Z,98060.81
2023-03-26T12:29:37.709Z,98063.59
2023-03-26T12:31:04.062Z,98068.25
2023-03-26T12:32:15.289Z,98066.41
2023-03-26T12:33:35.231Z,98057.31
2023-03-26T12:34:39.640Z,98061.53
2023-03-26T12:35:42.720Z,98057.44
2023-03-26T12:36:55.192Z,98055.63
2023-03-26T12:38:15.507Z,98049.63
2023-03-26T12:40:07.351Z,98055.91
2023-03-26T12:44:43.804Z,98049.78
2023-03-26T12:44:46.701Z,98031.84
2023-03-26T12:44:54.390Z,98032.75
2023-03-26T12:47:26.480Z,98038.34
2023-03-26T12:47:59.338Z,98028.13
2023-03-26T12:48:57.281Z,98026.81
2023-03-26T12:50:00.890Z,98027.63
2023-03-26T12:51:23.648Z,98023.38
2023-03-26T12:52:33.076Z,98036.28
2023-03-26T12:53:49.552Z,98023.22
2023-03-26T12:55:20.580Z,98033.84
2023-03-26T12:56:38.590Z,98040.69
2023-03-26T12:58:13.821Z,98024.75
2023-03-26T12:59:18.350Z,98031.59
2023-03-26T13:00:38.355Z,98018.88
2023-03-26T13:01:46.496Z,98013.34
2023-03-26T13:03:02.792Z,98031.88
2023-03-26T13:04:25.325Z,98022.59
2023-03-26T13:05:53.223Z,98022.13
2023-03-26T13:07:04.473Z,98017.47
2023-03-26T13:09:03.338Z,98014.13
2023-03-26T13:10:08.630Z,98031.09
2023-03-26T13:11:37.512Z,98007.34
2023-03-26T13:12:53.831Z,98003.00
2023-03-26T13:14:12.333Z,98009.34
2023-03-26T13:15:30.160Z,97990.16
2023-03-26T13:16:41.046Z,97992.97
2023-03-26T13:17:59.037Z,97992.88
2023-03-26T13:19:07.081Z,97992.00
2023-03-26T13:20:33.881Z,97987.28
2023-03-26T13:22:15.338Z,97996.75
2023-03-26T13:23:23.372Z,97998.44
2023-03-26T13:24:44.669Z,97993.22
2023-03-26T13:26:13.650Z,97989.69
2023-03-26T13:27:37.090Z,97984.97
2023-03-26T13:29:04.486Z,97979.09
2023-03-26T13:30:22.801Z,97981.47
2023-03-26T13:31:40.676Z,97988.38
2023-03-26T13:33:25.736Z,97991.63
2023-03-26T13:35:08.551Z,97983.91
2023-03-26T13:36:31.063Z,97989.16
2023-03-26T13:37:58.485Z,97982.84
2023-03-26T13:39:30.758Z,97989.44
2023-03-26T13:40:52.815Z,97982.00
2023-03-26T13:42:24.150Z,97982.88
2023-03-26T13:44:28.171Z,97988.13
2023-03-26T13:45:56.072Z,97991.50
2023-03-26T13:47:06.306Z,97978.28
2023-03-26T13:48:16.329Z,97992.38
2023-03-26T13:50:04.038Z,97981.25
2023-03-26T13:51:21.672Z,97993.94
2023-03-26T13:52:45.891Z,97965.84
2023-03-26T13:53:57.811Z,97985.44
2023-03-26T13:55:25.733Z,98000.00
2023-03-26T13:56:35.819Z,97985.47
2023-03-26T13:58:09.266Z,97990.72
2023-03-26T13:59:27.005Z,97997.44
2023-03-26T14:00:56.066Z,98004.88
2023-03-26T14:02:10.995Z,97989.47
2023-03-26T14:03:26.465Z,97987.06
2023-03-26T14:04:53.915Z,97992.38
2023-03-26T14:06:00.153Z,98001.78
2023-03-26T14:07:08.800Z,97998.53
2023-03-26T14:08:26.163Z,98003.88
2023-03-26T14:09:42.860Z,98006.13
2023-03-26T14:11:16.225Z,98005.38
2023-03-26T14:12:28.872Z,98011.78
2023-03-26T14:13:43.775Z,98014.22
2023-03-26T14:14:56.016Z,98022.66
2023-03-26T14:16:22.157Z,98023.63
2023-03-26T14:17:30.922Z,98032.28
2023-03-26T14:18:46.275Z,98027.97
2023-03-26T14:20:10.593Z,98030.81
2023-03-26T14:21:43.260Z,98037.97
2023-03-26T14:23:26.036Z,98046.63
2023-03-26T14:24:45.573Z,98053.94
2023-03-26T14:26:06.809Z,98055.25
2023-03-26T14:27:34.125Z,98070.50
2023-03-26T14:29:13.782Z,98076.28
2023-03-26T14:30:42.286Z,98083.50
2023-03-26T14:32:09.588Z,98091.31
2023-03-26T14:33:49.557Z,98096.38
2023-03-26T14:35:18.491Z,98113.69
2023-03-26T14:36:29.824Z,98115.19
2023-03-26T14:37:42.799Z,98124.81
2023-03-26T14:39:27.122Z,98123.69
2023-03-26T14:40:37.550Z,98128.69
2023-03-26T14:42:08.191Z,98136.22
2023-03-26T14:43:22.621Z,98143.56
2023-03-26T14:44:48.889Z,98141.47
2023-03-26T14:46:07.692Z,98142.84
2023-03-26T14:47:21.724Z,98146.66
2023-03-26T14:48:36.376Z,98140.84
2023-03-26T14:50:04.389Z,98138.94
2023-03-26T14:51:23.587Z,98147.84
2023-03-26T14:52:38.275Z,98146.34
2023-03-26T14:53:57.199Z,98143.72